METAR AND TAF INFORMATION
METAR FOR TNCB
ADDS - METARS form results

(0239 UTC 24 January 2020)
Data provider http://aviationweather.gov/metar/data/
 
METAR text: TNCB 240155Z AUTO 08004KT 9999 NCD 25/22 Q1012
Conditions at: TNCB (BONAIRE/FLAMINGO, AN) observed 0155 UTC 24 January 2020
Temperature: 25.0°C (77°F)
Dewpoint: 22.0°C (72°F) [RH = 83%]
Pressure (altimeter): 29.88 inches Hg (1012.0 mb)
Winds: from the E (80 degrees) at 5 MPH (4 knots; 2.1 m/s)
Visibility: 6 or more miles (10+ km)
Ceiling: at least 12,000 feet AGL
Clouds: sky clear below 12,000 feet AGL
Weather: no significant weather observed at this time

Forecast for: TNCB (BONAIRE/FLAMINGO, AN)
Text: TAF TNCB 232259Z 2400/2506 08007KT 9999 SCT018
Forecast period: 0000 UTC 24 January 2020 to 0600 UTC 25 January 2020
Forecast type: FROM: standard forecast or significant change
Winds: from the E (80 degrees) at 8 MPH (7 knots; 3.6 m/s)
Visibility: 6 or more miles 10+ km)
Ceiling: at least 12,000 feet AGL
Clouds: scattered clouds at 1800 feet AGL
Weather: no significant weather forecast for this period

 AIRPORT MAP

 RUNWAY INFORMATION
Runway 10 Runway length 9449 ft Runway width 148 ft
Runway elevation 14 ft Runway displaced threshold 0 ft Runway heading 92
Runway 28 Runway length 9449 ft Runway width 148 ft
Runway elevation 20 ft Runway displaced threshold 0 ft Runway heading 272

 AIRPORT FREQUENCIES
Type TWR Name TWR Frequency 118.7 MHZ

 AIRPORT NEAR NAVIGATION AIDS
Type NDB Name Bonaire Frequency 321 KHZ